createdAt,value
2023-03-13T00:01:42.886Z,7.95
2023-03-13T00:06:46.090Z,6.35
2023-03-13T00:11:49.205Z,6.68
2023-03-13T00:16:52.361Z,6.35
2023-03-13T00:21:55.546Z,6.60
2023-03-13T00:27:03.554Z,5.78
2023-03-13T00:32:07.610Z,5.93
2023-03-13T00:37:10.680Z,5.40
2023-03-13T00:42:16.300Z,5.50
2023-03-13T00:47:19.294Z,5.10
2023-03-13T00:52:22.348Z,4.80
2023-03-13T00:57:25.449Z,5.40
2023-03-13T01:02:28.735Z,4.70
2023-03-13T01:07:31.761Z,5.32
2023-03-13T01:12:34.745Z,4.63
2023-03-13T01:17:37.705Z,4.20
2023-03-13T01:22:40.759Z,4.13
2023-03-13T01:27:43.885Z,4.20
2023-03-13T01:32:47.003Z,4.07
2023-03-13T01:37:50.124Z,4.05
2023-03-13T01:42:55.793Z,4.20
2023-03-13T01:47:59.373Z,3.22
2023-03-13T01:53:18.936Z,3.38
2023-03-13T01:58:22.503Z,3.00
2023-03-13T02:03:29.487Z,3.05
2023-03-13T02:08:45.071Z,3.53
2023-03-13T02:13:50.591Z,3.80
2023-03-13T02:18:53.708Z,3.67
2023-03-13T02:24:16.413Z,3.47
2023-03-13T02:29:19.723Z,3.75
2023-03-13T02:34:29.141Z,2.65
2023-03-13T02:39:35.761Z,2.83
2023-03-13T02:44:40.616Z,2.97
2023-03-13T02:49:44.814Z,2.67
2023-03-13T02:54:52.064Z,2.72
2023-03-13T02:59:57.865Z,2.88
2023-03-13T03:05:00.966Z,3.40
2023-03-13T03:10:06.279Z,3.33
2023-03-13T03:15:10.712Z,2.80
2023-03-13T03:20:18.291Z,3.55
2023-03-13T03:25:21.337Z,2.80
2023-03-13T03:30:24.518Z,3.35
2023-03-13T03:35:28.286Z,3.35
2023-03-13T03:40:31.501Z,3.17
2023-03-13T03:45:34.599Z,3.33
2023-03-13T03:50:38.300Z,2.83
2023-03-13T03:55:41.602Z,3.25
2023-03-13T04:00:46.189Z,3.20
2023-03-13T04:05:49.313Z,3.42
2023-03-13T04:10:52.525Z,2.33
2023-03-13T04:15:58.859Z,1.75
2023-03-13T04:21:03.099Z,2.33
2023-03-13T04:26:10.092Z,2.00
2023-03-13T04:31:15.308Z,2.40
2023-03-13T04:36:41.872Z,1.67
2023-03-13T04:42:13.543Z,1.60
2023-03-13T04:47:32.728Z,1.73
2023-03-13T04:52:45.273Z,1.85
2023-03-13T04:58:01.110Z,1.67
2023-03-13T05:03:30.539Z,1.00
2023-03-13T05:08:33.641Z,0.85
2023-03-13T05:13:54.422Z,1.15
2023-03-13T05:19:23.456Z,1.30
2023-03-13T05:24:50.899Z,0.90
2023-03-13T05:30:15.554Z,1.08
2023-03-13T05:35:43.619Z,1.10
2023-03-13T05:41:00.198Z,1.00
2023-03-13T05:46:15.318Z,0.82
2023-03-13T05:51:31.517Z,1.60
2023-03-13T05:56:52.876Z,2.35
2023-03-13T06:02:14.119Z,1.48
2023-03-13T06:07:21.235Z,1.33
2023-03-13T06:12:25.066Z,1.88
2023-03-13T06:17:28.413Z,2.70
2023-03-13T06:22:31.804Z,2.25
2023-03-13T06:27:35.865Z,2.20
2023-03-13T06:32:41.854Z,2.95
2023-03-13T06:37:45.021Z,2.25
2023-03-13T06:42:48.010Z,2.08
2023-03-13T06:47:52.542Z,1.70
2023-03-13T06:52:55.501Z,3.60
2023-03-13T06:57:58.762Z,3.15
2023-03-13T07:03:02.379Z,2.00
2023-03-13T07:08:05.752Z,1.88
2023-03-13T07:13:08.732Z,3.05
2023-03-13T07:18:12.054Z,1.98
2023-03-13T07:23:15.240Z,2.13
2023-03-13T07:28:18.454Z,1.48
2023-03-13T07:33:21.662Z,1.30
2023-03-13T07:38:24.717Z,1.50
2023-03-13T07:43:29.850Z,1.05
2023-03-13T07:48:35.306Z,1.77
2023-03-13T07:53:38.668Z,1.77
2023-03-13T07:58:42.802Z,1.73
2023-03-13T08:03:46.783Z,2.03
2023-03-13T08:08:51.459Z,1.40
2023-03-13T08:13:57.319Z,1.27
2023-03-13T08:19:01.690Z,1.52
2023-03-13T08:24:07.465Z,1.27
2023-03-13T08:29:13.156Z,1.00
2023-03-13T08:34:17.738Z,0.80
2023-03-13T08:39:21.503Z,1.10
2023-03-13T08:44:24.557Z,2.22
2023-03-13T08:49:27.582Z,1.50
2023-03-13T08:54:30.661Z,1.05
2023-03-13T08:59:33.702Z,0.68
2023-03-13T09:04:36.778Z,0.80
2023-03-13T09:09:40.178Z,1.33
2023-03-13T09:14:43.331Z,0.98
2023-03-13T09:19:59.726Z,0.88
2023-03-13T09:25:03.920Z,0.98
2023-03-13T09:30:07.833Z,0.73
2023-03-13T09:35:11.016Z,0.68
2023-03-13T09:40:20.154Z,1.40
2023-03-13T09:45:34.441Z,0.70
2023-03-13T09:50:44.123Z,0.60
2023-03-13T09:55:48.357Z,0.52
2023-03-13T10:01:05.124Z,0.60
2023-03-13T10:06:22.198Z,0.55
2023-03-13T10:11:33.519Z,0.90
2023-03-13T10:16:59.667Z,0.68
2023-03-13T10:22:09.000Z,0.90
2023-03-13T10:27:14.171Z,0.70
2023-03-13T10:32:18.984Z,0.47
2023-03-13T10:37:33.651Z,1.08
2023-03-13T10:42:42.897Z,0.82
2023-03-13T10:47:46.142Z,0.40
2023-03-13T10:52:50.885Z,0.70
2023-03-13T10:58:02.846Z,0.70
2023-03-13T11:03:14.852Z,0.90
2023-03-13T11:08:17.946Z,0.60
2023-03-13T11:13:43.516Z,0.75
2023-03-13T11:18:52.330Z,0.57
2023-03-13T11:24:02.703Z,0.57
2023-03-13T11:29:11.371Z,0.65
2023-03-13T11:34:20.014Z,0.63
2023-03-13T11:39:40.921Z,0.30
2023-03-13T11:45:08.203Z,0.75
2023-03-13T11:50:31.081Z,0.70
2023-03-13T11:55:41.839Z,0.52
2023-03-13T12:00:53.853Z,0.60
2023-03-13T12:06:00.164Z,1.15
2023-03-13T12:11:25.938Z,0.52
2023-03-13T12:16:38.904Z,0.32
2023-03-13T12:21:49.230Z,0.60
2023-03-13T12:26:57.859Z,0.73
2023-03-13T12:32:20.432Z,0.40
2023-03-13T12:37:53.802Z,0.65
2023-03-13T12:43:06.416Z,0.50
2023-03-13T12:54:05.414Z,0.68
2023-03-13T12:59:39.796Z,0.68
2023-03-13T13:04:46.235Z,0.85
2023-03-13T13:10:19.389Z,0.60
2023-03-13T13:15:26.741Z,1.05
2023-03-13T13:20:42.092Z,0.90
2023-03-13T13:25:45.209Z,1.05
2023-03-13T13:30:49.781Z,1.33
2023-03-13T13:36:24.268Z,1.45
2023-03-13T13:41:35.438Z,1.17
2023-03-13T13:46:45.667Z,1.45
2023-03-13T13:52:06.418Z,1.45
2023-03-13T13:57:13.292Z,1.00
2023-03-13T14:02:22.912Z,1.45
2023-03-13T14:07:56.104Z,1.10
2023-03-13T14:13:02.650Z,1.75
2023-03-13T14:18:28.790Z,2.22
2023-03-13T14:23:43.351Z,1.75
2023-03-13T14:28:53.704Z,1.48
2023-03-13T14:34:09.129Z,1.15
2023-03-13T14:39:21.923Z,1.27
2023-03-13T14:49:33.048Z,1.27
2023-03-13T14:54:38.356Z,1.45
2023-03-13T14:59:41.407Z,1.75
2023-03-13T15:05:04.034Z,1.00
2023-03-13T15:10:42.745Z,1.23
2023-03-13T15:15:48.298Z,1.35
2023-03-13T15:20:59.901Z,2.03
2023-03-13T15:26:03.269Z,1.88
2023-03-13T15:31:06.382Z,2.58
2023-03-13T15:36:10.029Z,2.47
2023-03-13T15:41:13.119Z,1.92
2023-03-13T15:46:16.494Z,2.30
2023-03-13T15:51:21.212Z,2.10
2023-03-13T15:56:24.413Z,2.78
2023-03-13T16:01:28.882Z,2.17
2023-03-13T16:06:32.697Z,2.83
2023-03-13T16:11:35.869Z,2.25
2023-03-13T16:16:39.926Z,2.45
2023-03-13T16:21:48.574Z,2.85
2023-03-13T16:26:51.681Z,2.80
2023-03-13T16:31:57.473Z,2.60
2023-03-13T16:37:00.622Z,2.20
2023-03-13T16:42:03.684Z,3.03
2023-03-13T16:47:29.173Z,2.80
2023-03-13T16:52:32.238Z,2.45
2023-03-13T16:57:35.382Z,2.45
2023-03-13T17:02:39.384Z,1.80
2023-03-13T17:07:44.976Z,1.85
2023-03-13T17:12:48.641Z,2.00
2023-03-13T17:17:52.885Z,2.53
2023-03-13T17:23:02.298Z,2.25
2023-03-13T17:28:05.432Z,2.40
2023-03-13T17:33:08.593Z,3.00
2023-03-13T17:38:11.827Z,2.45
2023-03-13T17:43:14.997Z,2.30
2023-03-13T17:48:18.097Z,2.25
2023-03-13T17:53:21.263Z,2.05
2023-03-13T17:58:24.317Z,1.95
2023-03-13T18:03:27.419Z,2.50
2023-03-13T18:08:30.378Z,1.58
2023-03-13T18:13:33.404Z,1.88
2023-03-13T18:18:36.383Z,2.55
2023-03-13T18:23:39.420Z,1.52
2023-03-13T18:28:42.432Z,2.00
2023-03-13T18:33:47.657Z,2.05
2023-03-13T18:38:51.182Z,1.60
2023-03-13T18:43:54.311Z,1.30
2023-03-13T18:48:58.337Z,1.60
2023-03-13T18:54:03.710Z,1.70
2023-03-13T18:59:11.760Z,1.52
2023-03-13T19:04:16.101Z,1.20
2023-03-13T19:09:42.362Z,1.65
2023-03-13T19:14:44.501Z,1.52
2023-03-13T19:19:47.670Z,1.20
2023-03-13T19:24:51.581Z,1.65
2023-03-13T19:29:54.645Z,1.45
2023-03-13T19:34:57.717Z,1.90
2023-03-13T19:40:00.757Z,1.30
2023-03-13T19:45:04.026Z,1.63
2023-03-13T19:50:15.449Z,1.70
2023-03-13T19:55:18.517Z,1.40
2023-03-13T20:00:24.507Z,1.73
2023-03-13T20:05:27.767Z,1.65
2023-03-13T20:10:30.831Z,1.50
2023-03-13T20:15:33.812Z,1.15
2023-03-13T20:20:36.884Z,1.38
2023-03-13T20:25:40.031Z,1.50
2023-03-13T20:30:44.909Z,2.05
2023-03-13T20:35:47.994Z,1.33
2023-03-13T20:40:55.002Z,1.13
2023-03-13T20:45:59.684Z,1.38
2023-03-13T20:51:02.814Z,1.08
2023-03-13T20:56:10.333Z,1.50
2023-03-13T21:01:13.556Z,1.55
2023-03-13T21:06:18.860Z,1.15
2023-03-13T21:11:23.527Z,1.23
2023-03-13T21:16:27.714Z,1.08
2023-03-13T21:21:30.941Z,1.42
2023-03-13T21:26:34.066Z,1.50
2023-03-13T21:31:39.256Z,1.90
2023-03-13T21:36:42.437Z,1.45
2023-03-13T21:41:45.462Z,1.90
2023-03-13T21:46:48.965Z,1.20
2023-03-13T21:51:52.032Z,1.15
2023-03-13T21:56:55.042Z,1.52
2023-03-13T22:01:57.995Z,1.45
2023-03-13T22:07:00.939Z,1.52
2023-03-13T22:12:04.160Z,1.20
2023-03-13T22:17:07.947Z,1.80
2023-03-13T22:22:10.962Z,1.40
2023-03-13T22:27:15.701Z,1.58
2023-03-13T22:32:18.799Z,1.60
2023-03-13T22:37:22.587Z,1.67
2023-03-13T22:42:26.350Z,1.65
2023-03-13T22:47:29.370Z,1.67
2023-03-13T22:52:33.637Z,1.52
2023-03-13T22:57:36.723Z,1.38
2023-03-13T23:02:39.778Z,1.60
2023-03-13T23:07:42.870Z,1.30
2023-03-13T23:12:46.008Z,1.40
2023-03-13T23:17:49.183Z,1.40
2023-03-13T23:22:53.301Z,1.27
2023-03-13T23:27:56.427Z,1.00
2023-03-13T23:32:59.892Z,0.95
2023-03-13T23:38:02.872Z,1.40
2023-03-13T23:43:05.870Z,1.40
2023-03-13T23:48:09.009Z,1.05
2023-03-13T23:53:11.994Z,1.02
2023-03-13T23:58:14.947Z,1.67
